sensor_id;sensor_type;location;lat;lon;timestamp;temperature;humidity
18361;SHT31;9308;48.550;9.108;2023-05-14T00:00:14;13.51;76.60
18361;SHT31;9308;48.550;9.108;2023-05-14T00:02:39;13.42;76.60
18361;SHT31;9308;48.550;9.108;2023-05-14T00:05:05;13.35;77.10
18361;SHT31;9308;48.550;9.108;2023-05-14T00:07:31;13.36;76.87
18361;SHT31;9308;48.550;9.108;2023-05-14T00:09:57;13.25;77.21
18361;SHT31;9308;48.550;9.108;2023-05-14T00:12:23;13.27;77.30
18361;SHT31;9308;48.550;9.108;2023-05-14T00:14:48;13.18;77.50
18361;SHT31;9308;48.550;9.108;2023-05-14T00:17:14;13.34;76.96
18361;SHT31;9308;48.550;9.108;2023-05-14T00:19:39;13.35;77.24
18361;SHT31;9308;48.550;9.108;2023-05-14T00:22:07;13.39;76.95
18361;SHT31;9308;48.550;9.108;2023-05-14T00:24:33;13.28;77.38
18361;SHT31;9308;48.550;9.108;2023-05-14T00:26:58;13.45;76.74
18361;SHT31;9308;48.550;9.108;2023-05-14T00:29:24;13.32;77.29
18361;SHT31;9308;48.550;9.108;2023-05-14T00:31:49;13.24;77.61
18361;SHT31;9308;48.550;9.108;2023-05-14T00:34:14;13.30;77.22
18361;SHT31;9308;48.550;9.108;2023-05-14T00:36:40;13.25;77.40
18361;SHT31;9308;48.550;9.108;2023-05-14T00:39:05;13.32;76.96
18361;SHT31;9308;48.550;9.108;2023-05-14T00:41:31;13.14;77.35
18361;SHT31;9308;48.550;9.108;2023-05-14T00:43:56;13.10;77.94
18361;SHT31;9308;48.550;9.108;2023-05-14T00:46:22;13.20;77.60
18361;SHT31;9308;48.550;9.108;2023-05-14T00:48:47;13.17;77.41
18361;SHT31;9308;48.550;9.108;2023-05-14T00:51:13;13.21;77.43
18361;SHT31;9308;48.550;9.108;2023-05-14T00:53:38;13.21;77.66
18361;SHT31;9308;48.550;9.108;2023-05-14T00:56:04;13.06;77.98
18361;SHT31;9308;48.550;9.108;2023-05-14T00:58:30;13.13;77.98
18361;SHT31;9308;48.550;9.108;2023-05-14T01:00:55;13.18;77.55
18361;SHT31;9308;48.550;9.108;2023-05-14T01:03:21;13.23;77.52
18361;SHT31;9308;48.550;9.108;2023-05-14T01:06:16;13.20;77.40
18361;SHT31;9308;48.550;9.108;2023-05-14T01:11:47;13.17;77.61
18361;SHT31;9308;48.550;9.108;2023-05-14T01:14:24;13.18;77.40
18361;SHT31;9308;48.550;9.108;2023-05-14T01:16:56;13.18;77.82
18361;SHT31;9308;48.550;9.108;2023-05-14T01:19:43;13.18;77.78
18361;SHT31;9308;48.550;9.108;2023-05-14T01:22:09;13.14;77.79
18361;SHT31;9308;48.550;9.108;2023-05-14T01:24:35;13.25;77.37
18361;SHT31;9308;48.550;9.108;2023-05-14T01:27:23;13.24;77.38
18361;SHT31;9308;48.550;9.108;2023-05-14T01:30:17;13.23;77.42
18361;SHT31;9308;48.550;9.108;2023-05-14T01:32:47;13.16;77.55
18361;SHT31;9308;48.550;9.108;2023-05-14T01:35:13;13.17;77.81
18361;SHT31;9308;48.550;9.108;2023-05-14T01:37:40;13.18;77.50
18361;SHT31;9308;48.550;9.108;2023-05-14T01:40:07;13.08;77.78
18361;SHT31;9308;48.550;9.108;2023-05-14T01:42:33;13.21;77.41
18361;SHT31;9308;48.550;9.108;2023-05-14T01:44:59;13.10;77.75
18361;SHT31;9308;48.550;9.108;2023-05-14T01:47:25;13.16;77.51
18361;SHT31;9308;48.550;9.108;2023-05-14T01:49:50;13.21;77.42
18361;SHT31;9308;48.550;9.108;2023-05-14T01:52:15;13.14;77.33
18361;SHT31;9308;48.550;9.108;2023-05-14T01:54:41;13.13;77.38
18361;SHT31;9308;48.550;9.108;2023-05-14T01:57:06;13.11;77.20
18361;SHT31;9308;48.550;9.108;2023-05-14T01:59:32;12.90;77.86
18361;SHT31;9308;48.550;9.108;2023-05-14T02:01:57;12.95;77.82
18361;SHT31;9308;48.550;9.108;2023-05-14T02:04:23;12.83;78.09
18361;SHT31;9308;48.550;9.108;2023-05-14T02:06:48;12.73;78.10
18361;SHT31;9308;48.550;9.108;2023-05-14T02:09:14;12.63;78.61
18361;SHT31;9308;48.550;9.108;2023-05-14T02:11:39;12.45;79.15
18361;SHT31;9308;48.550;9.108;2023-05-14T02:14:05;12.65;78.64
18361;SHT31;9308;48.550;9.108;2023-05-14T02:16:30;12.41;78.58
18361;SHT31;9308;48.550;9.108;2023-05-14T02:18:56;12.45;78.68
18361;SHT31;9308;48.550;9.108;2023-05-14T02:21:21;12.45;78.41
18361;SHT31;9308;48.550;9.108;2023-05-14T02:23:47;12.62;78.28
18361;SHT31;9308;48.550;9.108;2023-05-14T02:26:13;12.44;78.80
18361;SHT31;9308;48.550;9.108;2023-05-14T02:28:39;12.61;78.24
18361;SHT31;9308;48.550;9.108;2023-05-14T02:31:04;12.58;78.30
18361;SHT31;9308;48.550;9.108;2023-05-14T02:33:30;12.49;78.74
18361;SHT31;9308;48.550;9.108;2023-05-14T02:35:55;12.55;78.50
18361;SHT31;9308;48.550;9.108;2023-05-14T02:38:21;12.56;78.26
18361;SHT31;9308;48.550;9.108;2023-05-14T02:40:47;12.72;78.27
18361;SHT31;9308;48.550;9.108;2023-05-14T02:43:12;12.66;78.07
18361;SHT31;9308;48.550;9.108;2023-05-14T02:45:38;12.68;77.87
18361;SHT31;9308;48.550;9.108;2023-05-14T02:48:03;12.63;78.42
18361;SHT31;9308;48.550;9.108;2023-05-14T02:50:28;12.59;78.31
18361;SHT31;9308;48.550;9.108;2023-05-14T02:52:54;12.56;78.71
18361;SHT31;9308;48.550;9.108;2023-05-14T02:55:20;12.68;78.13
18361;SHT31;9308;48.550;9.108;2023-05-14T02:57:45;12.79;77.78
18361;SHT31;9308;48.550;9.108;2023-05-14T03:00:11;12.81;77.71
18361;SHT31;9308;48.550;9.108;2023-05-14T03:02:37;12.75;78.19
18361;SHT31;9308;48.550;9.108;2023-05-14T03:05:03;12.83;77.94
18361;SHT31;9308;48.550;9.108;2023-05-14T03:07:28;12.65;78.19
18361;SHT31;9308;48.550;9.108;2023-05-14T03:09:54;12.59;78.57
18361;SHT31;9308;48.550;9.108;2023-05-14T03:12:19;12.66;78.53
18361;SHT31;9308;48.550;9.108;2023-05-14T03:14:45;12.75;78.03
18361;SHT31;9308;48.550;9.108;2023-05-14T03:17:11;12.72;78.36
18361;SHT31;9308;48.550;9.108;2023-05-14T03:19:36;12.72;78.27
18361;SHT31;9308;48.550;9.108;2023-05-14T03:22:02;12.76;78.18
18361;SHT31;9308;48.550;9.108;2023-05-14T03:24:27;12.83;78.28
18361;SHT31;9308;48.550;9.108;2023-05-14T03:26:52;12.86;78.16
18361;SHT31;9308;48.550;9.108;2023-05-14T03:29:18;12.87;78.36
18361;SHT31;9308;48.550;9.108;2023-05-14T03:31:43;12.80;78.65
18361;SHT31;9308;48.550;9.108;2023-05-14T03:34:09;12.76;78.22
18361;SHT31;9308;48.550;9.108;2023-05-14T03:36:35;12.76;78.88
18361;SHT31;9308;48.550;9.108;2023-05-14T03:39:04;12.66;79.04
18361;SHT31;9308;48.550;9.108;2023-05-14T03:41:31;12.69;79.05
18361;SHT31;9308;48.550;9.108;2023-05-14T03:43:57;12.84;78.56
18361;SHT31;9308;48.550;9.108;2023-05-14T03:46:22;12.81;78.70
18361;SHT31;9308;48.550;9.108;2023-05-14T03:48:47;12.79;78.94
18361;SHT31;9308;48.550;9.108;2023-05-14T03:51:13;12.89;78.61
18361;SHT31;9308;48.550;9.108;2023-05-14T03:53:38;12.93;78.13
18361;SHT31;9308;48.550;9.108;2023-05-14T03:56:04;12.83;78.74
18361;SHT31;9308;48.550;9.108;2023-05-14T03:58:29;12.77;78.85
18361;SHT31;9308;48.550;9.108;2023-05-14T04:00:55;12.77;78.66
18361;SHT31;9308;48.550;9.108;2023-05-14T04:03:20;12.83;78.82
18361;SHT31;9308;48.550;9.108;2023-05-14T04:05:46;12.81;78.93
18361;SHT31;9308;48.550;9.108;2023-05-14T04:08:11;12.89;77.98
18361;SHT31;9308;48.550;9.108;2023-05-14T04:10:37;12.95;78.48
18361;SHT31;9308;48.550;9.108;2023-05-14T04:13:02;12.95;78.13
18361;SHT31;9308;48.550;9.108;2023-05-14T04:15:27;12.95;78.35
18361;SHT31;9308;48.550;9.108;2023-05-14T04:17:53;12.95;77.92
18361;SHT31;9308;48.550;9.108;2023-05-14T04:20:18;13.07;77.70
18361;SHT31;9308;48.550;9.108;2023-05-14T04:22:44;12.99;78.34
18361;SHT31;9308;48.550;9.108;2023-05-14T04:25:09;13.04;78.08
18361;SHT31;9308;48.550;9.108;2023-05-14T04:27:35;13.07;77.76
18361;SHT31;9308;48.550;9.108;2023-05-14T04:30:00;13.03;78.17
18361;SHT31;9308;48.550;9.108;2023-05-14T04:32:26;13.07;77.72
18361;SHT31;9308;48.550;9.108;2023-05-14T04:34:51;13.06;77.63
18361;SHT31;9308;48.550;9.108;2023-05-14T04:37:17;13.00;77.90
18361;SHT31;9308;48.550;9.108;2023-05-14T04:39:42;13.18;77.53
18361;SHT31;9308;48.550;9.108;2023-05-14T04:42:08;13.11;77.98
18361;SHT31;9308;48.550;9.108;2023-05-14T04:44:34;13.16;77.73
18361;SHT31;9308;48.550;9.108;2023-05-14T04:47:00;13.13;77.68
18361;SHT31;9308;48.550;9.108;2023-05-14T04:49:27;13.30;76.93
18361;SHT31;9308;48.550;9.108;2023-05-14T04:51:53;12.87;78.19
18361;SHT31;9308;48.550;9.108;2023-05-14T04:54:18;13.08;77.63
18361;SHT31;9308;48.550;9.108;2023-05-14T04:56:44;13.14;77.72
18361;SHT31;9308;48.550;9.108;2023-05-14T04:59:09;13.08;77.56
18361;SHT31;9308;48.550;9.108;2023-05-14T05:01:34;13.24;77.11
18361;SHT31;9308;48.550;9.108;2023-05-14T05:04:00;13.30;77.47
18361;SHT31;9308;48.550;9.108;2023-05-14T05:06:26;13.28;76.72
18361;SHT31;9308;48.550;9.108;2023-05-14T05:08:51;13.51;76.65
18361;SHT31;9308;48.550;9.108;2023-05-14T05:11:17;13.41;76.46
18361;SHT31;9308;48.550;9.108;2023-05-14T05:13:42;13.35;76.93
18361;SHT31;9308;48.550;9.108;2023-05-14T05:16:08;13.38;76.61
18361;SHT31;9308;48.550;9.108;2023-05-14T05:18:33;13.42;76.82
18361;SHT31;9308;48.550;9.108;2023-05-14T05:20:59;13.54;76.60
18361;SHT31;9308;48.550;9.108;2023-05-14T05:23:24;13.52;76.50
18361;SHT31;9308;48.550;9.108;2023-05-14T05:25:50;13.58;76.79
18361;SHT31;9308;48.550;9.108;2023-05-14T05:28:15;13.62;76.91
18361;SHT31;9308;48.550;9.108;2023-05-14T05:30:41;13.63;76.75
18361;SHT31;9308;48.550;9.108;2023-05-14T05:33:09;13.83;75.81
18361;SHT31;9308;48.550;9.108;2023-05-14T05:35:35;13.82;75.65
18361;SHT31;9308;48.550;9.108;2023-05-14T05:38:00;13.97;74.91
18361;SHT31;9308;48.550;9.108;2023-05-14T05:40:26;13.99;74.68
18361;SHT31;9308;48.550;9.108;2023-05-14T05:42:52;13.96;75.45
18361;SHT31;9308;48.550;9.108;2023-05-14T05:45:17;13.79;75.89
18361;SHT31;9308;48.550;9.108;2023-05-14T05:47:43;13.71;76.54
18361;SHT31;9308;48.550;9.108;2023-05-14T05:50:09;13.97;75.64
18361;SHT31;9308;48.550;9.108;2023-05-14T05:52:35;13.82;75.37
18361;SHT31;9308;48.550;9.108;2023-05-14T05:55:00;13.85;75.86
18361;SHT31;9308;48.550;9.108;2023-05-14T05:57:25;13.86;76.74
18361;SHT31;9308;48.550;9.108;2023-05-14T05:59:51;13.92;75.79
18361;SHT31;9308;48.550;9.108;2023-05-14T06:02:18;14.00;75.92
18361;SHT31;9308;48.550;9.108;2023-05-14T06:04:43;13.78;77.08
18361;SHT31;9308;48.550;9.108;2023-05-14T06:07:09;13.66;77.01
18361;SHT31;9308;48.550;9.108;2023-05-14T06:09:34;13.55;77.38
18361;SHT31;9308;48.550;9.108;2023-05-14T06:11:59;13.71;77.04
18361;SHT31;9308;48.550;9.108;2023-05-14T06:14:25;13.89;76.84
18361;SHT31;9308;48.550;9.108;2023-05-14T06:16:50;13.78;77.07
18361;SHT31;9308;48.550;9.108;2023-05-14T06:19:16;13.97;76.46
18361;SHT31;9308;48.550;9.108;2023-05-14T06:21:41;13.72;76.91
18361;SHT31;9308;48.550;9.108;2023-05-14T06:24:07;13.69;76.97
18361;SHT31;9308;48.550;9.108;2023-05-14T06:26:32;13.86;76.80
18361;SHT31;9308;48.550;9.108;2023-05-14T06:28:57;13.75;76.65
18361;SHT31;9308;48.550;9.108;2023-05-14T06:31:23;13.96;76.39
18361;SHT31;9308;48.550;9.108;2023-05-14T06:33:48;14.03;76.51
18361;SHT31;9308;48.550;9.108;2023-05-14T06:36:14;14.07;75.60
18361;SHT31;9308;48.550;9.108;2023-05-14T06:38:39;14.25;75.68
18361;SHT31;9308;48.550;9.108;2023-05-14T06:41:05;14.13;75.53
18361;SHT31;9308;48.550;9.108;2023-05-14T06:43:30;14.07;76.07
18361;SHT31;9308;48.550;9.108;2023-05-14T06:45:56;14.14;76.15
18361;SHT31;9308;48.550;9.108;2023-05-14T06:48:21;13.96;76.93
18361;SHT31;9308;48.550;9.108;2023-05-14T06:50:47;14.42;75.68
18361;SHT31;9308;48.550;9.108;2023-05-14T06:53:13;14.66;75.52
18361;SHT31;9308;48.550;9.108;2023-05-14T06:55:39;14.38;75.46
18361;SHT31;9308;48.550;9.108;2023-05-14T06:58:08;14.65;75.38
18361;SHT31;9308;48.550;9.108;2023-05-14T07:00:33;14.79;74.90
18361;SHT31;9308;48.550;9.108;2023-05-14T07:02:59;14.54;74.97
18361;SHT31;9308;48.550;9.108;2023-05-14T07:05:24;14.72;75.02
18361;SHT31;9308;48.550;9.108;2023-05-14T07:07:50;14.45;75.66
18361;SHT31;9308;48.550;9.108;2023-05-14T07:10:16;14.41;75.72
18361;SHT31;9308;48.550;9.108;2023-05-14T07:12:41;14.65;74.90
18361;SHT31;9308;48.550;9.108;2023-05-14T07:15:07;14.59;73.99
18361;SHT31;9308;48.550;9.108;2023-05-14T07:17:33;14.52;74.81
18361;SHT31;9308;48.550;9.108;2023-05-14T07:19:59;14.68;74.84
18361;SHT31;9308;48.550;9.108;2023-05-14T07:22:25;14.49;74.81
18361;SHT31;9308;48.550;9.108;2023-05-14T07:24:50;14.20;75.61
18361;SHT31;9308;48.550;9.108;2023-05-14T07:27:16;14.17;76.50
18361;SHT31;9308;48.550;9.108;2023-05-14T07:29:42;14.42;75.31
18361;SHT31;9308;48.550;9.108;2023-05-14T07:32:07;14.57;74.90
18361;SHT31;9308;48.550;9.108;2023-05-14T07:34:33;14.27;76.33
18361;SHT31;9308;48.550;9.108;2023-05-14T07:36:58;14.59;75.75
18361;SHT31;9308;48.550;9.108;2023-05-14T07:39:23;14.39;74.97
18361;SHT31;9308;48.550;9.108;2023-05-14T07:41:49;14.28;76.11
18361;SHT31;9308;48.550;9.108;2023-05-14T07:44:15;14.32;75.83
18361;SHT31;9308;48.550;9.108;2023-05-14T07:46:41;14.66;75.37
18361;SHT31;9308;48.550;9.108;2023-05-14T07:49:06;14.57;75.13
18361;SHT31;9308;48.550;9.108;2023-05-14T07:51:32;14.38;75.64
18361;SHT31;9308;48.550;9.108;2023-05-14T07:53:57;14.47;75.79
18361;SHT31;9308;48.550;9.108;2023-05-14T07:56:23;14.32;75.87
18361;SHT31;9308;48.550;9.108;2023-05-14T07:58:49;14.64;73.97
18361;SHT31;9308;48.550;9.108;2023-05-14T08:01:15;14.61;74.48
18361;SHT31;9308;48.550;9.108;2023-05-14T08:03:41;14.38;75.27
18361;SHT31;9308;48.550;9.108;2023-05-14T08:06:06;14.93;74.20
18361;SHT31;9308;48.550;9.108;2023-05-14T08:08:32;14.71;74.73
18361;SHT31;9308;48.550;9.108;2023-05-14T08:10:57;14.86;74.27
18361;SHT31;9308;48.550;9.108;2023-05-14T08:13:22;15.13;73.81
18361;SHT31;9308;48.550;9.108;2023-05-14T08:15:48;15.27;72.80
18361;SHT31;9308;48.550;9.108;2023-05-14T08:18:14;15.35;72.81
18361;SHT31;9308;48.550;9.108;2023-05-14T08:20:39;15.65;72.00
18361;SHT31;9308;48.550;9.108;2023-05-14T08:23:04;15.97;71.63
18361;SHT31;9308;48.550;9.108;2023-05-14T08:25:34;16.23;70.92
18361;SHT31;9308;48.550;9.108;2023-05-14T08:27:59;16.30;70.51
18361;SHT31;9308;48.550;9.108;2023-05-14T08:30:26;16.55;69.59
18361;SHT31;9308;48.550;9.108;2023-05-14T08:32:51;16.56;69.56
18361;SHT31;9308;48.550;9.108;2023-05-14T08:35:17;16.79;69.12
18361;SHT31;9308;48.550;9.108;2023-05-14T08:37:43;16.55;68.92
18361;SHT31;9308;48.550;9.108;2023-05-14T08:40:09;16.64;70.08
18361;SHT31;9308;48.550;9.108;2023-05-14T08:42:37;16.82;69.49
18361;SHT31;9308;48.550;9.108;2023-05-14T08:45:17;17.09;68.10
18361;SHT31;9308;48.550;9.108;2023-05-14T08:47:47;16.95;68.54
18361;SHT31;9308;48.550;9.108;2023-05-14T08:50:14;16.35;69.66
18361;SHT31;9308;48.550;9.108;2023-05-14T08:52:40;16.62;69.72
18361;SHT31;9308;48.550;9.108;2023-05-14T08:55:05;16.88;68.40
18361;SHT31;9308;48.550;9.108;2023-05-14T08:57:33;16.54;69.11
18361;SHT31;9308;48.550;9.108;2023-05-14T08:59:59;16.64;69.89
18361;SHT31;9308;48.550;9.108;2023-05-14T09:02:28;16.99;70.32
18361;SHT31;9308;48.550;9.108;2023-05-14T09:04:55;17.07;67.53
18361;SHT31;9308;48.550;9.108;2023-05-14T09:07:22;17.45;66.55
18361;SHT31;9308;48.550;9.108;2023-05-14T09:09:48;17.52;66.05
18361;SHT31;9308;48.550;9.108;2023-05-14T09:12:14;17.41;66.56
18361;SHT31;9308;48.550;9.108;2023-05-14T09:14:39;17.13;67.40
18361;SHT31;9308;48.550;9.108;2023-05-14T09:17:04;17.28;66.34
18361;SHT31;9308;48.550;9.108;2023-05-14T09:19:30;17.90;65.90
18361;SHT31;9308;48.550;9.108;2023-05-14T09:21:57;17.93;65.74
18361;SHT31;9308;48.550;9.108;2023-05-14T09:24:25;17.97;65.89
18361;SHT31;9308;48.550;9.108;2023-05-14T09:26:52;17.85;65.28
18361;SHT31;9308;48.550;9.108;2023-05-14T09:29:17;17.78;66.45
18361;SHT31;9308;48.550;9.108;2023-05-14T09:31:43;18.09;65.66
18361;SHT31;9308;48.550;9.108;2023-05-14T09:34:09;18.85;63.32
18361;SHT31;9308;48.550;9.108;2023-05-14T09:36:35;19.26;61.38
18361;SHT31;9308;48.550;9.108;2023-05-14T09:39:02;19.90;58.69
18361;SHT31;9308;48.550;9.108;2023-05-14T09:41:28;19.51;60.03
18361;SHT31;9308;48.550;9.108;2023-05-14T09:43:53;19.66;59.89
18361;SHT31;9308;48.550;9.108;2023-05-14T09:46:21;19.58;58.47
18361;SHT31;9308;48.550;9.108;2023-05-14T09:48:46;18.45;61.48
18361;SHT31;9308;48.550;9.108;2023-05-14T09:51:12;19.13;60.77
18361;SHT31;9308;48.550;9.108;2023-05-14T09:53:38;18.09;61.90
18361;SHT31;9308;48.550;9.108;2023-05-14T09:56:05;18.30;61.04
18361;SHT31;9308;48.550;9.108;2023-05-14T09:58:31;19.02;60.01
18361;SHT31;9308;48.550;9.108;2023-05-14T10:00:57;18.83;60.18
18361;SHT31;9308;48.550;9.108;2023-05-14T10:03:24;18.89;59.07
18361;SHT31;9308;48.550;9.108;2023-05-14T10:05:51;19.61;59.41
18361;SHT31;9308;48.550;9.108;2023-05-14T10:08:25;20.94;56.34
18361;SHT31;9308;48.550;9.108;2023-05-14T10:10:57;21.33;56.35
18361;SHT31;9308;48.550;9.108;2023-05-14T10:13:29;21.87;55.71
18361;SHT31;9308;48.550;9.108;2023-05-14T10:16:42;21.51;54.38
18361;SHT31;9308;48.550;9.108;2023-05-14T10:18:51;21.54;54.13
18361;SHT31;9308;48.550;9.108;2023-05-14T10:21:19;21.78;54.27
18361;SHT31;9308;48.550;9.108;2023-05-14T10:23:46;22.01;54.32
18361;SHT31;9308;48.550;9.108;2023-05-14T10:26:12;21.30;54.99
18361;SHT31;9308;48.550;9.108;2023-05-14T10:28:38;22.29;53.12
18361;SHT31;9308;48.550;9.108;2023-05-14T10:31:03;22.12;52.50
18361;SHT31;9308;48.550;9.108;2023-05-14T10:33:29;22.82;51.63
18361;SHT31;9308;48.550;9.108;2023-05-14T10:35:59;23.30;49.94
18361;SHT31;9308;48.550;9.108;2023-05-14T10:38:27;22.82;50.99
18361;SHT31;9308;48.550;9.108;2023-05-14T10:40:58;22.16;51.03
18361;SHT31;9308;48.550;9.108;2023-05-14T10:43:26;21.03;51.52
18361;SHT31;9308;48.550;9.108;2023-05-14T10:45:56;20.77;52.49
18361;SHT31;9308;48.550;9.108;2023-05-14T10:48:22;20.68;54.03
18361;SHT31;9308;48.550;9.108;2023-05-14T10:50:51;19.53;57.05
18361;SHT31;9308;48.550;9.108;2023-05-14T10:53:17;19.16;58.10
18361;SHT31;9308;48.550;9.108;2023-05-14T10:55:43;18.92;58.92
18361;SHT31;9308;48.550;9.108;2023-05-14T10:58:10;18.89;58.18
18361;SHT31;9308;48.550;9.108;2023-05-14T11:00:36;19.64;56.88
18361;SHT31;9308;48.550;9.108;2023-05-14T11:03:03;21.19;53.81
18361;SHT31;9308;48.550;9.108;2023-05-14T11:05:30;21.06;53.84
18361;SHT31;9308;48.550;9.108;2023-05-14T11:07:56;20.50;54.75
18361;SHT31;9308;48.550;9.108;2023-05-14T11:10:22;20.17;55.53
18361;SHT31;9308;48.550;9.108;2023-05-14T11:12:51;19.86;55.67
18361;SHT31;9308;48.550;9.108;2023-05-14T11:15:20;20.96;55.34
18361;SHT31;9308;48.550;9.108;2023-05-14T11:17:47;21.46;53.12
18361;SHT31;9308;48.550;9.108;2023-05-14T11:20:13;20.91;53.09
18361;SHT31;9308;48.550;9.108;2023-05-14T11:22:40;21.09;52.89
18361;SHT31;9308;48.550;9.108;2023-05-14T11:25:09;21.20;53.12
18361;SHT31;9308;48.550;9.108;2023-05-14T11:27:38;21.89;52.88
18361;SHT31;9308;48.550;9.108;2023-05-14T11:30:04;22.53;51.27
18361;SHT31;9308;48.550;9.108;2023-05-14T11:32:31;22.54;49.93
18361;SHT31;9308;48.550;9.108;2023-05-14T11:34:56;22.06;48.67
18361;SHT31;9308;48.550;9.108;2023-05-14T11:37:22;22.12;49.41
18361;SHT31;9308;48.550;9.108;2023-05-14T11:39:49;21.43;51.17
18361;SHT31;9308;48.550;9.108;2023-05-14T11:42:15;22.59;49.17
18361;SHT31;9308;48.550;9.108;2023-05-14T11:44:41;22.35;52.55
18361;SHT31;9308;48.550;9.108;2023-05-14T11:47:09;22.68;49.00
18361;SHT31;9308;48.550;9.108;2023-05-14T11:49:35;22.92;46.62
18361;SHT31;9308;48.550;9.108;2023-05-14T11:52:04;22.29;48.60
18361;SHT31;9308;48.550;9.108;2023-05-14T11:54:30;21.70;49.78
18361;SHT31;9308;48.550;9.108;2023-05-14T11:56:58;20.50;51.62
18361;SHT31;9308;48.550;9.108;2023-05-14T11:59:27;21.20;51.53
18361;SHT31;9308;48.550;9.108;2023-05-14T12:01:57;21.34;49.47
18361;SHT31;9308;48.550;9.108;2023-05-14T12:04:22;22.30;49.42
18361;SHT31;9308;48.550;9.108;2023-05-14T12:06:51;23.11;48.68
18361;SHT31;9308;48.550;9.108;2023-05-14T12:09:21;23.46;46.41
18361;SHT31;9308;48.550;9.108;2023-05-14T12:11:48;22.80;47.32
18361;SHT31;9308;48.550;9.108;2023-05-14T12:14:21;23.84;45.12
18361;SHT31;9308;48.550;9.108;2023-05-14T12:16:47;23.90;45.23
18361;SHT31;9308;48.550;9.108;2023-05-14T12:19:14;23.02;45.01
18361;SHT31;9308;48.550;9.108;2023-05-14T12:21:42;24.16;42.92
18361;SHT31;9308;48.550;9.108;2023-05-14T12:24:16;24.50;44.49
18361;SHT31;9308;48.550;9.108;2023-05-14T12:26:46;25.01;43.58
18361;SHT31;9308;48.550;9.108;2023-05-14T12:29:14;25.10;43.75
18361;SHT31;9308;48.550;9.108;2023-05-14T12:31:49;24.56;44.61
18361;SHT31;9308;48.550;9.108;2023-05-14T12:34:15;23.71;46.20
18361;SHT31;9308;48.550;9.108;2023-05-14T12:36:42;23.30;46.81
18361;SHT31;9308;48.550;9.108;2023-05-14T12:39:07;22.74;47.77
18361;SHT31;9308;48.550;9.108;2023-05-14T12:41:34;23.29;48.09
18361;SHT31;9308;48.550;9.108;2023-05-14T12:44:01;23.02;47.80
18361;SHT31;9308;48.550;9.108;2023-05-14T12:46:27;23.42;47.48
18361;SHT31;9308;48.550;9.108;2023-05-14T12:48:53;21.68;50.84
18361;SHT31;9308;48.550;9.108;2023-05-14T12:51:19;22.26;48.83
18361;SHT31;9308;48.550;9.108;2023-05-14T12:53:44;22.85;47.37
18361;SHT31;9308;48.550;9.108;2023-05-14T12:56:10;24.00;45.22
18361;SHT31;9308;48.550;9.108;2023-05-14T12:58:36;22.95;45.35
18361;SHT31;9308;48.550;9.108;2023-05-14T13:01:02;20.79;51.91
18361;SHT31;9308;48.550;9.108;2023-05-14T13:03:27;19.53;56.69
18361;SHT31;9308;48.550;9.108;2023-05-14T13:05:53;18.96;60.67
18361;SHT31;9308;48.550;9.108;2023-05-14T13:08:20;19.53;60.94
18361;SHT31;9308;48.550;9.108;2023-05-14T13:10:52;19.37;62.95
18361;SHT31;9308;48.550;9.108;2023-05-14T13:13:18;19.03;61.41
18361;SHT31;9308;48.550;9.108;2023-05-14T13:15:44;18.69;62.79
18361;SHT31;9308;48.550;9.108;2023-05-14T13:18:15;18.68;62.95
18361;SHT31;9308;48.550;9.108;2023-05-14T13:20:40;18.78;62.76
18361;SHT31;9308;48.550;9.108;2023-05-14T13:23:06;18.88;61.51
18361;SHT31;9308;48.550;9.108;2023-05-14T13:25:32;18.23;63.19
18361;SHT31;9308;48.550;9.108;2023-05-14T13:27:57;18.78;59.89
18361;SHT31;9308;48.550;9.108;2023-05-14T13:30:23;19.20;58.69
18361;SHT31;9308;48.550;9.108;2023-05-14T13:32:49;19.51;58.45
18361;SHT31;9308;48.550;9.108;2023-05-14T13:35:15;19.71;57.85
18361;SHT31;9308;48.550;9.108;2023-05-14T13:37:42;20.78;57.36
18361;SHT31;9308;48.550;9.108;2023-05-14T13:40:08;21.54;54.40
18361;SHT31;9308;48.550;9.108;2023-05-14T13:42:34;21.26;53.15
18361;SHT31;9308;48.550;9.108;2023-05-14T13:45:00;21.03;54.78
18361;SHT31;9308;48.550;9.108;2023-05-14T13:47:25;20.58;54.65
18361;SHT31;9308;48.550;9.108;2023-05-14T13:49:52;19.59;54.93
18361;SHT31;9308;48.550;9.108;2023-05-14T13:52:17;19.43;57.07
18361;SHT31;9308;48.550;9.108;2023-05-14T13:54:43;19.28;57.49
18361;SHT31;9308;48.550;9.108;2023-05-14T13:57:08;19.33;56.71
18361;SHT31;9308;48.550;9.108;2023-05-14T13:59:34;19.16;58.32
18361;SHT31;9308;48.550;9.108;2023-05-14T14:02:00;19.50;58.00
18361;SHT31;9308;48.550;9.108;2023-05-14T14:04:25;19.54;56.91
18361;SHT31;9308;48.550;9.108;2023-05-14T14:06:56;19.58;55.57
18361;SHT31;9308;48.550;9.108;2023-05-14T14:09:22;19.81;55.23
18361;SHT31;9308;48.550;9.108;2023-05-14T14:11:47;20.02;54.34
18361;SHT31;9308;48.550;9.108;2023-05-14T14:14:13;19.92;54.07
18361;SHT31;9308;48.550;9.108;2023-05-14T14:16:38;20.40;54.40
18361;SHT31;9308;48.550;9.108;2023-05-14T14:19:05;20.33;54.05
18361;SHT31;9308;48.550;9.108;2023-05-14T14:21:30;20.24;53.99
18361;SHT31;9308;48.550;9.108;2023-05-14T14:23:56;19.66;54.51
18361;SHT31;9308;48.550;9.108;2023-05-14T14:26:22;19.19;55.14
18361;SHT31;9308;48.550;9.108;2023-05-14T14:28:47;18.51;56.24
18361;SHT31;9308;48.550;9.108;2023-05-14T14:31:13;18.83;56.85
18361;SHT31;9308;48.550;9.108;2023-05-14T14:33:38;18.98;56.93
18361;SHT31;9308;48.550;9.108;2023-05-14T14:36:04;19.26;55.56
18361;SHT31;9308;48.550;9.108;2023-05-14T14:38:30;19.04;56.30
18361;SHT31;9308;48.550;9.108;2023-05-14T14:40:56;19.07;55.53
18361;SHT31;9308;48.550;9.108;2023-05-14T14:43:22;19.09;55.81
18361;SHT31;9308;48.550;9.108;2023-05-14T14:45:48;19.45;56.80
18361;SHT31;9308;48.550;9.108;2023-05-14T14:48:30;19.23;56.48
18361;SHT31;9308;48.550;9.108;2023-05-14T14:50:58;19.41;55.92
18361;SHT31;9308;48.550;9.108;2023-05-14T14:53:23;19.69;55.48
18361;SHT31;9308;48.550;9.108;2023-05-14T14:55:49;19.59;55.16
18361;SHT31;9308;48.550;9.108;2023-05-14T14:58:16;19.72;55.37
18361;SHT31;9308;48.550;9.108;2023-05-14T15:00:42;19.59;55.53
18361;SHT31;9308;48.550;9.108;2023-05-14T15:03:07;19.69;55.61
18361;SHT31;9308;48.550;9.108;2023-05-14T15:05:34;19.48;54.87
18361;SHT31;9308;48.550;9.108;2023-05-14T15:08:00;19.74;55.24
18361;SHT31;9308;48.550;9.108;2023-05-14T15:10:29;19.87;55.20
18361;SHT31;9308;48.550;9.108;2023-05-14T15:12:57;20.05;54.26
18361;SHT31;9308;48.550;9.108;2023-05-14T15:15:23;20.24;53.78
18361;SHT31;9308;48.550;9.108;2023-05-14T15:17:49;20.57;52.51
18361;SHT31;9308;48.550;9.108;2023-05-14T15:20:14;20.58;52.33
18361;SHT31;9308;48.550;9.108;2023-05-14T15:22:39;20.74;52.65
18361;SHT31;9308;48.550;9.108;2023-05-14T15:25:05;20.54;52.85
18361;SHT31;9308;48.550;9.108;2023-05-14T15:27:30;20.45;53.15
18361;SHT31;9308;48.550;9.108;2023-05-14T15:29:56;20.06;53.34
18361;SHT31;9308;48.550;9.108;2023-05-14T15:32:21;20.02;54.10
18361;SHT31;9308;48.550;9.108;2023-05-14T15:34:47;19.87;53.65
18361;SHT31;9308;48.550;9.108;2023-05-14T15:37:12;20.34;52.74
18361;SHT31;9308;48.550;9.108;2023-05-14T15:39:38;20.75;51.20
18361;SHT31;9308;48.550;9.108;2023-05-14T15:42:03;23.19;44.82